Abilene/Dyess AFB, Texas
Current Conditions -  °F | °C
As of 11:08 AM on Friday 19 Dec 2014 (Local Time) from KDYS Reporting Station
Overcast Overcast  
Wind Chill: 45°   Ceiling: 1000
Heat Index: 45°   Visibility: 10mi
Dew Point: 39°   Wind: 2mph
Humidity: 81%   Direction: 40°NE
Pressure: 30.2"   Gusts: NA
Location:  32.43°N, 99.83°W
Report Text: KDYS 191708Z AUTO 04002KT 10SM OVC010 07/04 A3020 RMK AO2 $
Loading
Personal Weather Stations






























Interactive Weather Map New forecast layout! Learn more

10-Day Weather Forecast

Advertisements
Track Severe Weather on mobile